Time,TemperatureF,DewpointF,PressureIn,WindDirection,WindDirectionDegrees,WindSpeedMPH,WindSpeedGustMPH,Humidity,HourlyPrecipIn,Conditions,Clouds,dailyrainin,SolarRadiationWatts/m^2,SoftwareType,DateUTC
2013-03-31 00:00:00,66.1,61.1,29.85,SE,144,4.6,4.6,84,0.00,CLR,,0.81,0.0,WeatherDisplay:10.37,2013-03-31 05:00:00,
2013-03-31 00:05:00,66.0,61.0,29.84,SSE,149,5.8,5.8,84,0.00,CLR,,0.00,0.0,WeatherDisplay:10.37,2013-03-31 05:05:00,
2013-03-31 00:10:00,65.9,60.9,29.84,SSE,162,4.6,4.6,84,0.00,CLR,,0.00,0.0,WeatherDisplay:10.37,2013-03-31 05:10:00,
2013-03-31 00:15:00,65.8,60.8,29.84,SSE,167,5.0,5.0,84,0.00,CLR,,0.00,0.0,WeatherDisplay:10.37,2013-03-31 05:15:00,
2013-03-31 00:20:00,65.7,60.7,29.84,South,173,5.8,5.8,84,0.00,CLR,,0.00,0.0,WeatherDisplay:10.37,2013-03-31 05:20:00,
2013-03-31 00:25:00,65.5,60.5,29.84,South,176,3.5,3.5,84,0.00,CLR,,0.00,0.0,WeatherDisplay:10.37,2013-03-31 05:25:00,
2013-03-31 00:30:00,65.4,60.4,29.83,South,178,5.8,5.8,84,0.00,CLR,,0.00,0.0,WeatherDisplay:10.37,2013-03-31 05:30:00,
2013-03-31 00:35:00,65.2,60.2,29.83,SSE,168,2.3,2.3,84,0.00,CLR,,0.00,0.0,WeatherDisplay:10.37,2013-03-31 05:35:00,
2013-03-31 00:40:00,65.1,60.1,29.83,SSE,151,3.5,3.5,84,0.00,CLR,,0.00,0.0,WeatherDisplay:10.37,2013-03-31 05:40:00,
2013-03-31 00:45:00,65.0,60.4,29.83,SE,146,1.1,1.1,85,0.00,CLR,,0.00,0.0,WeatherDisplay:10.37,2013-03-31 05:45:00,
2013-03-31 00:50:00,64.9,60.3,29.83,SE,146,3.5,3.5,85,0.00,CLR,,0.00,0.0,WeatherDisplay:10.37,2013-03-31 05:50:00,
2013-03-31 00:55:00,64.8,60.2,29.83,SE,146,4.0,4.0,85,0.00,CLR,,0.00,0.0,WeatherDisplay:10.37,2013-03-31 05:55:00,
2013-03-31 01:01:00,64.8,60.2,29.83,SE,145,1.1,1.1,85,0.00,CLR,,0.00,0.0,WeatherDisplay:10.37,2013-03-31 06:01:00,
2013-03-31 01:06:00,64.6,60.0,29.83,SE,144,2.0,2.0,85,0.00,CLR,,0.00,0.0,WeatherDisplay:10.37,2013-03-31 06:06:00,
2013-03-31 01:11:00,64.6,60.0,29.83,SE,143,2.3,2.3,85,0.00,CLR,,0.00,0.0,WeatherDisplay:10.37,2013-03-31 06:11:00,
2013-03-31 01:16:00,64.5,59.9,29.83,SE,143,2.0,2.0,85,0.00,CLR,,0.00,0.0,WeatherDisplay:10.37,2013-03-31 06:16:00,
2013-03-31 01:21:00,64.4,59.8,29.83,SE,141,4.6,4.6,85,0.00,CLR,,0.00,0.0,WeatherDisplay:10.37,2013-03-31 06:21:00,
2013-03-31 01:26:00,64.3,59.7,29.83,SE,142,5.0,5.0,85,0.00,CLR,,0.00,0.0,WeatherDisplay:10.37,2013-03-31 06:26:00,
2013-03-31 01:31:00,64.2,59.6,29.83,SE,142,3.5,3.5,85,0.00,CLR,,0.00,0.0,WeatherDisplay:10.37,2013-03-31 06:31:00,
2013-03-31 01:36:00,64.1,59.5,29.83,SE,142,4.6,4.6,85,0.00,CLR,,0.00,0.0,WeatherDisplay:10.37,2013-03-31 06:36:00,
2013-03-31 01:41:00,64.0,59.4,29.83,SSE,152,4.0,4.0,85,0.00,CLR,,0.00,0.0,WeatherDisplay:10.37,2013-03-31 06:41:00,
2013-03-31 01:46:00,63.9,59.3,29.83,SSE,149,4.6,4.6,85,0.00,CLR,,0.00,0.0,WeatherDisplay:10.37,2013-03-31 06:46:00,
2013-03-31 01:51:00,63.8,59.2,29.83,SE,139,5.0,5.0,85,0.00,CLR,,0.00,0.0,WeatherDisplay:10.37,2013-03-31 06:51:00,
2013-03-31 01:56:00,63.7,59.4,29.83,SE,139,2.3,2.3,86,0.00,CLR,,0.00,0.0,WeatherDisplay:10.37,2013-03-31 06:56:00,
2013-03-31 02:01:00,63.7,59.4,29.83,SE,139,2.3,2.3,86,0.00,CLR,,0.00,0.0,WeatherDisplay:10.37,2013-03-31 07:01:00,
2013-03-31 02:06:00,63.6,59.3,29.83,SE,141,4.6,4.6,86,0.00,CLR,,0.00,0.0,WeatherDisplay:10.37,2013-03-31 07:06:00,
2013-03-31 02:11:00,63.6,59.3,29.83,SE,143,5.0,5.0,86,0.00,CLR,,0.00,0.0,WeatherDisplay:10.37,2013-03-31 07:11:00,
2013-03-31 02:16:00,63.5,59.2,29.83,SE,144,6.9,6.9,86,0.00,CLR,,0.00,0.0,WeatherDisplay:10.37,2013-03-31 07:16:00,
2013-03-31 02:21:00,63.5,59.2,29.83,SE,140,3.5,3.5,86,0.00,CLR,,0.00,0.0,WeatherDisplay:10.37,2013-03-31 07:21:00,
2013-03-31 02:27:00,63.4,59.1,29.83,SE,132,2.3,2.3,86,0.00,CLR,,0.00,0.0,WeatherDisplay:10.37,2013-03-31 07:27:00,
2013-03-31 02:32:00,63.3,59.0,29.84,SE,131,3.5,3.5,86,0.00,CLR,,0.00,0.0,WeatherDisplay:10.37,2013-03-31 07:32:00,
2013-03-31 02:37:00,63.3,59.0,29.84,SE,131,3.5,3.5,86,0.00,CLR,,0.00,0.0,WeatherDisplay:10.37,2013-03-31 07:37:00,
2013-03-31 02:42:00,63.2,58.9,29.84,SE,132,2.3,2.3,86,0.00,CLR,,0.00,0.0,WeatherDisplay:10.37,2013-03-31 07:42:00,
2013-03-31 02:47:00,63.2,58.9,29.83,SE,134,4.6,4.6,86,0.00,CLR,,0.00,0.0,WeatherDisplay:10.37,2013-03-31 07:47:00,
2013-03-31 02:52:00,63.1,58.8,29.83,SE,137,4.6,4.6,86,0.00,CLR,,0.00,0.0,WeatherDisplay:10.37,2013-03-31 07:52:00,
2013-03-31 02:57:00,63.0,58.7,29.83,SE,138,4.6,4.6,86,0.00,CLR,,0.00,0.0,WeatherDisplay:10.37,2013-03-31 07:57:00,
2013-03-31 03:02:00,63.0,58.7,29.83,SE,137,5.0,5.0,86,0.00,CLR,,0.00,0.0,WeatherDisplay:10.37,2013-03-31 08:02:00,
2013-03-31 03:07:00,62.9,58.6,29.83,SE,134,3.5,3.5,86,0.00,CLR,,0.00,0.0,WeatherDisplay:10.37,2013-03-31 08:07:00,
2013-03-31 03:12:00,62.9,58.6,29.83,SE,136,2.3,2.3,86,0.00,CLR,,0.00,0.0,WeatherDisplay:10.37,2013-03-31 08:12:00,
2013-03-31 03:17:00,62.9,59.0,29.83,SE,136,4.6,4.6,87,0.00,CLR,,0.00,0.0,WeatherDisplay:10.37,2013-03-31 08:17:00,
2013-03-31 03:22:00,62.9,59.0,29.82,SE,128,3.5,3.5,87,0.00,CLR,,0.00,0.0,WeatherDisplay:10.37,2013-03-31 08:22:00,
2013-03-31 03:27:00,62.9,59.0,29.82,SE,127,4.0,4.0,87,0.00,CLR,,0.00,0.0,WeatherDisplay:10.37,2013-03-31 08:27:00,
2013-03-31 03:32:00,62.8,58.9,29.82,SE,126,5.8,5.8,87,0.00,CLR,,0.00,0.0,WeatherDisplay:10.37,2013-03-31 08:32:00,
2013-03-31 03:37:00,62.8,58.9,29.82,SE,141,6.9,6.9,87,0.00,CLR,,0.00,0.0,WeatherDisplay:10.37,2013-03-31 08:37:00,
2013-03-31 03:42:00,62.8,58.9,29.82,SE,136,4.6,4.6,87,0.00,CLR,,0.00,0.0,WeatherDisplay:10.37,2013-03-31 08:42:00,
2013-03-31 03:47:00,62.8,58.9,29.81,SE,138,5.0,5.0,87,0.00,CLR,,0.00,0.0,WeatherDisplay:10.37,2013-03-31 08:47:00,
2013-03-31 03:52:00,62.7,58.8,29.81,SE,137,2.3,2.3,87,0.00,CLR,,0.00,0.0,WeatherDisplay:10.37,2013-03-31 08:52:00,
2013-03-31 03:57:00,62.6,58.7,29.81,SE,138,4.0,4.0,87,0.00,CLR,,0.00,0.0,WeatherDisplay:10.37,2013-03-31 08:57:00,
2013-03-31 04:02:00,62.5,58.6,29.80,SE,138,4.0,4.0,87,0.00,CLR,,0.00,0.0,WeatherDisplay:10.37,2013-03-31 09:02:00,
2013-03-31 04:07:00,62.4,58.5,29.80,SE,138,2.3,2.3,87,0.00,CLR,,0.00,0.0,WeatherDisplay:10.37,2013-03-31 09:07:00,
2013-03-31 04:12:00,62.4,58.5,29.80,SE,135,6.0,6.0,87,0.00,CLR,,0.00,0.0,WeatherDisplay:10.37,2013-03-31 09:12:00,
2013-03-31 04:17:00,62.3,58.4,29.80,SE,139,4.6,4.6,87,0.00,CLR,,0.00,0.0,WeatherDisplay:10.37,2013-03-31 09:17:00,
2013-03-31 04:22:00,62.3,58.4,29.80,SE,146,6.9,6.9,87,0.00,CLR,,0.00,0.0,WeatherDisplay:10.37,2013-03-31 09:22:00,
2013-03-31 04:27:00,62.2,58.3,29.80,SE,136,4.6,4.6,87,0.00,CLR,,0.00,0.0,WeatherDisplay:10.37,2013-03-31 09:27:00,
2013-03-31 04:32:00,62.2,58.3,29.79,SSE,163,5.0,5.0,87,0.00,CLR,,0.00,0.0,WeatherDisplay:10.37,2013-03-31 09:32:00,
2013-03-31 04:37:00,62.2,58.6,29.79,SSE,163,6.0,6.0,88,0.00,CLR,,0.00,0.0,WeatherDisplay:10.37,2013-03-31 09:37:00,
2013-03-31 04:42:00,62.2,58.6,29.79,SE,143,8.1,8.1,88,0.00,CLR,,0.00,0.0,WeatherDisplay:10.37,2013-03-31 09:42:00,
2013-03-31 04:48:00,62.2,58.6,29.79,SSE,147,8.0,8.0,88,0.00,CLR,,0.00,0.0,WeatherDisplay:10.37,2013-03-31 09:48:00,
2013-03-31 04:53:00,62.3,58.7,29.79,SSE,159,5.8,5.8,88,0.00,CLR,,0.00,0.0,WeatherDisplay:10.37,2013-03-31 09:53:00,
2013-03-31 04:58:00,62.3,58.7,29.79,SE,146,8.1,8.1,88,0.00,CLR,,0.00,0.0,WeatherDisplay:10.37,2013-03-31 09:58:00,
2013-03-31 05:03:00,62.4,58.8,29.79,SSE,155,6.9,6.9,88,0.00,CLR,,0.00,0.0,WeatherDisplay:10.37,2013-03-31 10:03:00,
2013-03-31 05:08:00,62.4,58.8,29.79,SSE,164,9.2,9.2,88,0.00,CLR,,0.00,0.0,WeatherDisplay:10.37,2013-03-31 10:08:00,
2013-03-31 05:13:00,62.5,59.2,29.79,SSE,167,5.8,5.8,89,0.00,CLR,,0.00,0.0,WeatherDisplay:10.37,2013-03-31 10:13:00,
2013-03-31 05:18:00,62.5,59.2,29.79,SE,139,8.1,8.1,89,0.00,CLR,,0.00,0.0,WeatherDisplay:10.37,2013-03-31 10:18:00,
2013-03-31 05:23:00,62.7,59.4,29.78,SSE,156,6.9,6.9,89,0.00,CLR,,0.00,0.0,WeatherDisplay:10.37,2013-03-31 10:23:00,
2013-03-31 05:28:00,62.7,59.4,29.78,SE,140,10.4,10.4,89,0.00,CLR,,0.00,0.0,WeatherDisplay:10.37,2013-03-31 10:28:00,
2013-03-31 05:33:00,62.9,59.6,29.78,SSE,165,11.5,11.5,89,0.00,CLR,,0.00,0.0,WeatherDisplay:10.37,2013-03-31 10:33:00,
2013-03-31 05:38:00,63.0,59.7,29.78,East,94,12.7,12.7,89,0.00,CLR,,0.00,0.0,WeatherDisplay:10.37,2013-03-31 10:38:00,
2013-03-31 05:43:00,63.2,59.9,29.77,SSE,152,11.5,11.5,89,0.00,CLR,,0.00,0.0,WeatherDisplay:10.37,2013-03-31 10:43:00,
2013-03-31 05:48:00,63.3,60.0,29.77,South,171,9.2,9.2,89,0.00,CLR,,0.00,0.0,WeatherDisplay:10.37,2013-03-31 10:48:00,
2013-03-31 05:53:00,63.4,60.4,29.78,SSE,157,10.0,10.0,90,0.00,CLR,,0.00,0.0,WeatherDisplay:10.37,2013-03-31 10:53:00,
2013-03-31 05:58:00,63.5,60.5,29.78,SE,146,11.5,11.5,90,0.00,CLR,,0.00,0.0,WeatherDisplay:10.37,2013-03-31 10:58:00,
2013-03-31 06:03:00,63.6,60.6,29.77,SSE,150,9.2,9.2,90,0.00,BKN,,0.00,0.0,WeatherDisplay:10.37,2013-03-31 11:03:00,
2013-03-31 06:08:00,63.6,60.6,29.77,SSE,147,11.5,11.5,90,0.00,BKN,,0.00,0.0,WeatherDisplay:10.37,2013-03-31 11:08:00,
2013-03-31 06:13:00,63.7,60.7,29.77,South,190,11.5,11.5,90,0.00,BKN,,0.00,0.0,WeatherDisplay:10.37,2013-03-31 11:13:00,
2013-03-31 06:18:00,63.8,60.8,29.76,South,182,11.5,11.5,90,0.00,BKN,,0.00,0.0,WeatherDisplay:10.37,2013-03-31 11:18:00,
2013-03-31 06:23:00,64.0,61.0,29.76,South,173,10.4,10.4,90,0.00,BKN,,0.00,0.0,WeatherDisplay:10.37,2013-03-31 11:23:00,
2013-03-31 06:28:00,64.1,61.1,29.76,SSE,168,13.8,13.8,90,0.00,BKN,,0.00,0.0,WeatherDisplay:10.37,2013-03-31 11:28:00,
2013-03-31 06:33:00,64.3,61.3,29.76,South,186,10.4,10.4,90,0.00,BKN,,0.00,0.0,WeatherDisplay:10.37,2013-03-31 11:33:00,
2013-03-31 06:38:00,64.4,61.4,29.76,SSE,157,9.0,9.0,90,0.00,BKN,,0.00,0.0,WeatherDisplay:10.37,2013-03-31 11:38:00,
2013-03-31 06:43:00,64.5,61.5,29.76,South,186,10.4,10.4,90,0.00,BKN,,0.00,0.0,WeatherDisplay:10.37,2013-03-31 11:43:00,
2013-03-31 06:48:00,64.6,61.6,29.76,SSW,197,12.7,12.7,90,0.00,BKN,,0.00,0.0,WeatherDisplay:10.37,2013-03-31 11:48:00,
2013-03-31 06:53:00,64.6,61.6,29.76,SSE,150,17.3,17.3,90,0.00,BKN,,0.00,0.0,WeatherDisplay:10.37,2013-03-31 11:53:00,
2013-03-31 06:58:00,64.8,61.8,29.76,South,182,9.2,9.2,90,0.00,BKN,,0.00,0.0,WeatherDisplay:10.37,2013-03-31 11:58:00,
2013-03-31 07:03:00,64.8,61.8,29.75,South,177,12.0,12.0,90,0.00,OVC,,0.00,0.0,WeatherDisplay:10.37,2013-03-31 12:03:00,
2013-03-31 07:08:00,64.9,61.9,29.75,SSE,154,11.5,11.5,90,0.00,OVC,,0.00,0.0,WeatherDisplay:10.37,2013-03-31 12:08:00,
2013-03-31 07:13:00,64.9,61.9,29.75,SSE,157,9.2,9.2,90,0.00,OVC,,0.00,0.0,WeatherDisplay:10.37,2013-03-31 12:13:00,
2013-03-31 07:18:00,65.0,62.0,29.75,South,178,9.0,9.0,90,0.00,OVC,,0.00,0.0,WeatherDisplay:10.37,2013-03-31 12:18:00,
2013-03-31 07:23:00,65.1,62.1,29.75,South,184,13.8,13.8,90,0.00,OVC,,0.00,0.0,WeatherDisplay:10.37,2013-03-31 12:23:00,
2013-03-31 07:28:00,65.2,62.2,29.75,SSW,202,8.0,8.0,90,0.00,OVC,,0.00,0.0,WeatherDisplay:10.37,2013-03-31 12:28:00,
2013-03-31 07:33:00,65.2,62.2,29.76,South,170,12.0,12.0,90,0.00,OVC,,0.00,0.0,WeatherDisplay:10.37,2013-03-31 12:33:00,
2013-03-31 07:38:00,65.3,62.3,29.76,SSW,198,16.1,16.1,90,0.00,OVC,,0.00,0.0,WeatherDisplay:10.37,2013-03-31 12:38:00,
2013-03-31 07:43:00,65.4,62.4,29.77,South,178,11.0,11.0,90,0.00,OVC,,0.00,0.0,WeatherDisplay:10.37,2013-03-31 12:43:00,
2013-03-31 07:48:00,65.5,62.5,29.77,SW,232,11.5,11.5,90,0.00,OVC,,0.00,0.0,WeatherDisplay:10.37,2013-03-31 12:48:00,
2013-03-31 07:53:00,65.6,62.6,29.77,South,180,11.5,11.5,90,0.00,OVC,,0.00,0.0,WeatherDisplay:10.37,2013-03-31 12:53:00,
2013-03-31 07:58:00,65.7,62.7,29.78,SE,130,11.5,11.5,90,0.00,OVC,,0.00,0.0,WeatherDisplay:10.37,2013-03-31 12:58:00,
2013-03-31 08:03:00,65.7,62.7,29.82,SSW,202,5.8,5.8,90,0.00, +RA,,0.00,0.0,WeatherDisplay:10.37,2013-03-31 13:03:00,
2013-03-31 08:08:00,65.8,62.8,29.86,North,360,18.0,18.0,90,0.00, +RA,,0.00,0.0,WeatherDisplay:10.37,2013-03-31 13:08:00,
2013-03-31 08:13:00,64.4,60.4,29.89,NNE,15,26.5,26.5,87,0.06, +RA,,0.08,0.0,WeatherDisplay:10.37,2013-03-31 13:13:00,
2013-03-31 08:19:00,63.0,59.1,29.88,North,355,18.4,18.4,87,0.22, +RA,,0.26,0.0,WeatherDisplay:10.37,2013-03-31 13:19:00,
2013-03-31 08:24:00,61.7,57.8,29.89,NNE,15,13.8,13.8,87,0.36,RA,,0.37,0.0,WeatherDisplay:10.37,2013-03-31 13:24:00,
2013-03-31 08:29:00,61.1,57.5,29.89,North,11,8.0,8.0,88,0.40,RA,,0.40,0.0,WeatherDisplay:10.37,2013-03-31 13:29:00,
2013-03-31 08:34:00,60.6,57.0,29.89,NNE,17,11.5,11.5,88,0.42,RA,,0.42,0.0,WeatherDisplay:10.37,2013-03-31 13:34:00,
2013-03-31 08:39:00,60.3,56.7,29.90,NNE,31,11.5,11.5,88,0.42,OVC,,0.42,0.0,WeatherDisplay:10.37,2013-03-31 13:39:00,
2013-03-31 08:44:00,60.0,56.4,29.91,North,355,11.5,11.5,88,0.43,RA,,0.43,14.0,WeatherDisplay:10.37,2013-03-31 13:44:00,
2013-03-31 08:49:00,59.6,56.0,29.91,NNE,28,6.9,6.9,88,0.43,RA,,0.43,16.0,WeatherDisplay:10.37,2013-03-31 13:49:00,
2013-03-31 08:54:00,59.4,55.8,29.90,ENE,59,8.1,8.1,88,0.43,-RA,,0.43,35.0,WeatherDisplay:10.37,2013-03-31 13:54:00,
2013-03-31 08:59:00,59.1,55.9,29.90,NE,49,10.4,10.4,89,0.43,-RA,,0.43,60.0,WeatherDisplay:10.37,2013-03-31 13:59:00,
2013-03-31 09:04:00,59.0,55.8,29.90,NNE,24,8.1,8.1,89,0.43,BKN,,0.43,63.0,WeatherDisplay:10.37,2013-03-31 14:04:00,
2013-03-31 09:09:00,58.7,55.5,29.90,NE,51,10.4,10.4,89,0.43,BKN,,0.43,58.0,WeatherDisplay:10.37,2013-03-31 14:09:00,
2013-03-31 09:14:00,58.5,55.3,29.90,NE,44,11.5,11.5,89,0.37,BKN,,0.43,56.0,WeatherDisplay:10.37,2013-03-31 14:14:00,
2013-03-31 09:19:00,58.4,55.2,29.90,NE,38,11.5,11.5,89,0.21,BKN,,0.43,67.0,WeatherDisplay:10.37,2013-03-31 14:19:00,
2013-03-31 09:24:00,58.3,55.4,29.89,NE,34,11.5,11.5,90,0.06,BKN,,0.43,142.0,WeatherDisplay:10.37,2013-03-31 14:24:00,
2013-03-31 09:29:00,58.4,55.5,29.89,NE,44,10.4,10.4,90,0.03,BKN,,0.43,287.0,WeatherDisplay:10.37,2013-03-31 14:29:00,
2013-03-31 09:34:00,58.6,55.7,29.89,NE,48,10.4,10.4,90,0.01,BKN,,0.43,397.0,WeatherDisplay:10.37,2013-03-31 14:34:00,
2013-03-31 09:39:00,58.9,56.0,29.90,ENE,57,6.0,6.0,90,0.01,BKN,,0.43,441.0,WeatherDisplay:10.37,2013-03-31 14:39:00,
2013-03-31 09:44:00,59.4,56.8,29.90,NNE,15,8.1,8.1,91,0.00,BKN,,0.43,494.0,WeatherDisplay:10.37,2013-03-31 14:44:00,
2013-03-31 09:49:00,59.8,57.2,29.90,ENE,59,6.0,6.0,91,0.00,BKN,,0.43,504.0,WeatherDisplay:10.37,2013-03-31 14:49:00,
2013-03-31 09:54:00,60.2,57.6,29.90,NE,45,5.8,5.8,91,0.00,BKN,,0.43,529.0,WeatherDisplay:10.37,2013-03-31 14:54:00,
2013-03-31 09:59:00,60.6,57.7,29.90,North,11,8.1,8.1,90,0.00,BKN,,0.43,446.0,WeatherDisplay:10.37,2013-03-31 14:59:00,
2013-03-31 10:04:00,60.9,57.9,29.90,North,5,9.2,9.2,90,0.00,OVC,,0.43,299.0,WeatherDisplay:10.37,2013-03-31 15:04:00,
2013-03-31 10:09:00,61.1,57.8,29.90,NE,46,10.0,10.0,89,0.00,OVC,,0.43,262.0,WeatherDisplay:10.37,2013-03-31 15:09:00,
2013-03-31 10:14:00,61.6,58.6,29.90,ENE,59,4.6,4.6,90,0.00,OVC,,0.43,786.0,WeatherDisplay:10.37,2013-03-31 15:14:00,
2013-03-31 10:19:00,61.9,58.6,29.91,ENE,63,9.2,9.2,89,0.00,OVC,,0.43,271.0,WeatherDisplay:10.37,2013-03-31 15:19:00,
2013-03-31 10:24:00,61.8,58.2,29.92,NNE,17,8.1,8.1,88,0.00,OVC,,0.43,229.0,WeatherDisplay:10.37,2013-03-31 15:24:00,
2013-03-31 10:29:00,61.8,58.2,29.92,NE,42,8.1,8.1,88,0.00,OVC,,0.43,218.0,WeatherDisplay:10.37,2013-03-31 15:29:00,
2013-03-31 10:34:00,61.7,58.1,29.92,North,5,6.9,6.9,88,0.00,OVC,,0.43,149.0,WeatherDisplay:10.37,2013-03-31 15:34:00,
2013-03-31 10:39:00,61.7,57.8,29.92,North,360,8.1,8.1,87,0.00,OVC,,0.43,262.0,WeatherDisplay:10.37,2013-03-31 15:39:00,
2013-03-31 10:44:00,61.6,57.7,29.92,NE,48,8.1,8.1,87,0.00,OVC,,0.43,218.0,WeatherDisplay:10.37,2013-03-31 15:44:00,
2013-03-31 10:49:00,61.7,57.8,29.92,NNE,33,11.5,11.5,87,0.00,OVC,,0.43,197.0,WeatherDisplay:10.37,2013-03-31 15:49:00,
2013-03-31 10:54:00,61.8,57.9,29.93,North,5,6.0,6.0,87,0.00,OVC,,0.43,213.0,WeatherDisplay:10.37,2013-03-31 15:54:00,
2013-03-31 10:59:00,61.9,58.0,29.92,NE,42,6.9,6.9,87,0.00,OVC,,0.43,237.0,WeatherDisplay:10.37,2013-03-31 15:59:00,
2013-03-31 11:04:00,62.0,58.1,29.92,NE,54,5.8,5.8,87,0.00,OVC,,0.43,438.0,WeatherDisplay:10.37,2013-03-31 16:04:00,
2013-03-31 11:09:00,62.3,58.1,29.92,ENE,64,11.5,11.5,86,0.00,OVC,,0.43,503.0,WeatherDisplay:10.37,2013-03-31 16:09:00,
2013-03-31 11:14:00,62.7,58.5,29.92,ENE,57,6.9,6.9,86,0.00,OVC,,0.43,308.0,WeatherDisplay:10.37,2013-03-31 16:14:00,
2013-03-31 11:19:00,63.1,58.2,29.91,NE,44,10.4,10.4,84,0.00,OVC,,0.43,615.0,WeatherDisplay:10.37,2013-03-31 16:19:00,
2013-03-31 11:24:00,63.8,58.9,29.90,NNE,33,5.8,5.8,84,0.00,OVC,,0.43,826.0,WeatherDisplay:10.37,2013-03-31 16:24:00,
2013-03-31 11:29:00,64.3,58.7,29.91,ENE,57,8.1,8.1,82,0.00,OVC,,0.43,1007.0,WeatherDisplay:10.37,2013-03-31 16:29:00,
2013-03-31 11:34:00,64.9,58.9,29.91,NE,40,9.0,9.0,81,0.00,OVC,,0.43,598.0,WeatherDisplay:10.37,2013-03-31 16:34:00,
2013-03-31 11:39:00,65.1,58.8,29.91,NE,44,5.8,5.8,80,0.00,OVC,,0.43,385.0,WeatherDisplay:10.37,2013-03-31 16:39:00,
2013-03-31 11:44:00,65.2,58.9,29.91,NE,51,5.8,5.8,80,0.00,OVC,,0.43,369.0,WeatherDisplay:10.37,2013-03-31 16:44:00,
2013-03-31 11:49:00,65.7,59.4,29.92,NE,53,8.1,8.1,80,0.00,OVC,,0.43,527.0,WeatherDisplay:10.37,2013-03-31 16:49:00,
2013-03-31 11:54:00,66.0,58.9,29.92,NNE,25,8.0,8.0,78,0.00,OVC,,0.43,306.0,WeatherDisplay:10.37,2013-03-31 16:54:00,
2013-03-31 11:59:00,66.1,59.4,29.93,North,360,5.0,5.0,79,0.00,OVC,,0.43,279.0,WeatherDisplay:10.37,2013-03-31 16:59:00,
2013-03-31 12:04:00,66.1,59.0,29.93,NNW,327,6.9,6.9,78,0.00,OVC,,0.43,466.0,WeatherDisplay:10.37,2013-03-31 17:04:00,
2013-03-31 12:10:00,66.6,59.2,29.94,North,355,11.5,11.5,77,0.00,OVC,,0.43,1023.0,WeatherDisplay:10.37,2013-03-31 17:10:00,
2013-03-31 12:15:00,67.3,59.5,29.94,North,5,8.1,8.1,76,0.00,OVC,,0.43,315.0,WeatherDisplay:10.37,2013-03-31 17:15:00,
2013-03-31 12:20:00,67.2,59.4,29.94,North,9,4.6,4.6,76,0.00,OVC,,0.43,503.0,WeatherDisplay:10.37,2013-03-31 17:20:00,
2013-03-31 12:25:00,67.5,59.3,29.93,North,5,11.5,11.5,75,0.00,OVC,,0.43,468.0,WeatherDisplay:10.37,2013-03-31 17:25:00,
2013-03-31 12:30:00,67.4,59.2,29.93,NNE,22,10.4,10.4,75,0.00,OVC,,0.43,392.0,WeatherDisplay:10.37,2013-03-31 17:30:00,
2013-03-31 12:35:00,67.1,58.9,29.93,North,355,6.9,6.9,75,0.00,OVC,,0.43,380.0,WeatherDisplay:10.37,2013-03-31 17:35:00,
2013-03-31 12:40:00,67.0,59.5,29.93,NE,54,6.9,6.9,77,0.00,OVC,,0.43,619.0,WeatherDisplay:10.37,2013-03-31 17:40:00,
2013-03-31 12:45:00,67.5,60.0,29.92,East,88,5.8,5.8,77,0.00,OVC,,0.43,619.0,WeatherDisplay:10.37,2013-03-31 17:45:00,
2013-03-31 12:50:00,67.7,59.1,29.92,NNE,29,5.0,10.0,74,0.00,OVC,,0.43,557.0,WeatherDisplay:10.37,2013-03-31 17:50:00,
2013-03-31 12:55:00,68.2,60.0,29.92,NNE,15,2.0,10.0,75,0.00,OVC,,0.43,529.0,WeatherDisplay:10.37,2013-03-31 17:55:00,
2013-03-31 13:00:00,68.4,59.8,29.92,NNE,17,7.0,7.0,74,0.00,OVC,,0.43,548.0,WeatherDisplay:10.37,2013-03-31 18:00:00,
2013-03-31 13:05:00,68.1,58.7,29.92,NE,42,8.1,8.1,72,0.00,BKN,,0.43,462.0,WeatherDisplay:10.37,2013-03-31 18:05:00,
2013-03-31 13:10:00,67.9,59.3,29.92,North,9,9.2,9.2,74,0.00,BKN,,0.43,833.0,WeatherDisplay:10.37,2013-03-31 18:10:00,
2013-03-31 13:15:00,68.2,59.2,29.92,NW,323,3.5,3.5,73,0.00,BKN,,0.43,366.0,WeatherDisplay:10.37,2013-03-31 18:15:00,
2013-03-31 13:20:00,68.3,59.3,29.92,ENE,60,6.0,6.0,73,0.00,BKN,,0.43,432.0,WeatherDisplay:10.37,2013-03-31 18:20:00,
2013-03-31 13:25:00,68.5,59.5,29.92,East,91,9.2,9.2,73,0.00,BKN,,0.43,432.0,WeatherDisplay:10.37,2013-03-31 18:25:00,
2013-03-31 13:30:00,69.3,59.9,29.92,NE,55,3.5,3.5,72,0.00,BKN,,0.43,1248.0,WeatherDisplay:10.37,2013-03-31 18:30:00,
2013-03-31 13:35:00,69.5,59.7,29.92,North,355,5.8,5.8,71,0.00,BKN,,0.43,396.0,WeatherDisplay:10.37,2013-03-31 18:35:00,
2013-03-31 13:40:00,69.5,59.3,29.92,North,350,7.0,7.0,70,0.00,BKN,,0.43,517.0,WeatherDisplay:10.37,2013-03-31 18:40:00,
2013-03-31 13:45:00,69.5,58.9,29.92,ENE,57,10.4,10.4,69,0.00,BKN,,0.43,877.0,WeatherDisplay:10.37,2013-03-31 18:45:00,
2013-03-31 13:50:00,69.5,59.3,29.92,NE,34,5.0,5.0,70,0.00,BKN,,0.43,501.0,WeatherDisplay:10.37,2013-03-31 18:50:00,
2013-03-31 13:55:00,69.7,59.1,29.92,NE,46,8.1,8.1,69,0.00,BKN,,0.43,541.0,WeatherDisplay:10.37,2013-03-31 18:55:00,
2013-03-31 14:00:00,69.5,58.5,29.92,NNE,24,3.5,3.5,68,0.00,BKN,,0.43,585.0,WeatherDisplay:10.37,2013-03-31 19:00:00,
2013-03-31 14:05:00,70.0,59.8,29.92,NE,37,8.1,8.1,70,0.00,BKN,,0.43,772.0,WeatherDisplay:10.37,2013-03-31 19:05:00,
2013-03-31 14:10:00,70.4,59.7,29.92,NNE,27,5.8,5.8,69,0.00,BKN,,0.43,875.0,WeatherDisplay:10.37,2013-03-31 19:10:00,
2013-03-31 14:15:00,70.7,59.2,29.92,NE,56,6.9,6.9,67,0.00,BKN,,0.43,935.0,WeatherDisplay:10.37,2013-03-31 19:15:00,
2013-03-31 14:20:00,70.8,59.7,29.91,East,80,3.5,0.0,68,0.00,BKN,,0.43,928.0,WeatherDisplay:10.37,2013-03-31 19:20:00,
2013-03-31 14:25:00,71.4,59.9,29.91,NE,53,6.9,6.9,67,0.00,BKN,,0.43,773.0,WeatherDisplay:10.37,2013-03-31 19:25:00,
2013-03-31 14:30:00,71.7,60.2,29.91,NW,313,4.6,4.6,67,0.00,BKN,,0.43,357.0,WeatherDisplay:10.37,2013-03-31 19:30:00,
2013-03-31 14:35:00,72.1,60.1,29.92,ENE,57,9.2,9.2,66,0.00,BKN,,0.43,278.0,WeatherDisplay:10.37,2013-03-31 19:35:00,
2013-03-31 14:40:00,72.4,59.5,29.91,North,5,8.1,8.1,64,0.00,BKN,,0.43,969.0,WeatherDisplay:10.37,2013-03-31 19:40:00,
2013-03-31 14:45:00,72.0,59.6,29.92,NE,41,3.5,3.5,65,0.00,BKN,,0.43,392.0,WeatherDisplay:10.37,2013-03-31 19:45:00,
2013-03-31 14:50:00,71.9,59.5,29.91,North,9,9.2,9.2,65,0.00,BKN,,0.43,784.0,WeatherDisplay:10.37,2013-03-31 19:50:00,
2013-03-31 14:55:00,72.3,60.7,29.91,NNW,330,11.5,11.5,67,0.00,BKN,,0.43,939.0,WeatherDisplay:10.37,2013-03-31 19:55:00,
2013-03-31 15:00:00,72.7,59.4,29.91,NNW,344,6.9,6.9,63,0.00,BKN,,0.43,861.0,WeatherDisplay:10.37,2013-03-31 20:00:00,
2013-03-31 15:05:00,72.7,59.4,29.91,NW,309,9.2,9.2,63,0.00,BKN,,0.43,1032.0,WeatherDisplay:10.37,2013-03-31 20:05:00,
2013-03-31 15:10:00,73.0,59.2,29.91,NE,52,8.0,8.0,62,0.00,BKN,,0.43,1009.0,WeatherDisplay:10.37,2013-03-31 20:10:00,
2013-03-31 15:15:00,72.6,58.8,29.91,NNE,18,8.1,8.1,62,0.00,BKN,,0.43,821.0,WeatherDisplay:10.37,2013-03-31 20:15:00,
2013-03-31 15:20:00,73.6,58.4,29.91,NNW,338,8.0,8.0,59,0.00,BKN,,0.43,798.0,WeatherDisplay:10.37,2013-03-31 20:20:00,
2013-03-31 15:25:00,73.4,58.7,29.90,NNW,330,13.8,13.8,60,0.00,BKN,,0.43,786.0,WeatherDisplay:10.37,2013-03-31 20:25:00,
2013-03-31 15:30:00,73.1,56.5,29.90,NE,53,6.9,6.9,56,0.00,BKN,,0.43,775.0,WeatherDisplay:10.37,2013-03-31 20:30:00,
2013-03-31 15:35:00,73.0,56.9,29.90,NNE,24,4.6,4.6,57,0.00,BKN,,0.43,765.0,WeatherDisplay:10.37,2013-03-31 20:35:00,
2013-03-31 15:40:00,73.8,58.1,29.90,NNE,31,4.6,4.6,58,0.00,BKN,,0.43,758.0,WeatherDisplay:10.37,2013-03-31 20:40:00,
2013-03-31 15:45:00,73.7,58.0,29.89,NNE,12,9.2,9.2,58,0.00,BKN,,0.43,756.0,WeatherDisplay:10.37,2013-03-31 20:45:00,
2013-03-31 15:50:00,73.8,58.1,29.90,NNE,23,5.8,5.8,58,0.00,BKN,,0.43,759.0,WeatherDisplay:10.37,2013-03-31 20:50:00,
2013-03-31 15:55:00,73.6,58.9,29.90,NNW,339,4.6,4.6,60,0.00,BKN,,0.43,744.0,WeatherDisplay:10.37,2013-03-31 20:55:00,
2013-03-31 16:00:00,74.2,58.9,29.89,NW,311,12.0,12.0,59,0.00,BKN,,0.43,719.0,WeatherDisplay:10.37,2013-03-31 21:00:00,
2013-03-31 16:05:00,74.8,60.0,29.89,West,280,6.9,6.9,60,0.00,BKN,,0.43,712.0,WeatherDisplay:10.37,2013-03-31 21:05:00,
2013-03-31 16:10:00,75.3,59.0,29.89,WNW,303,5.0,5.0,57,0.00,BKN,,0.43,710.0,WeatherDisplay:10.37,2013-03-31 21:10:00,
2013-03-31 16:15:00,75.2,59.4,29.89,North,360,16.1,16.1,58,0.00,BKN,,0.43,694.0,WeatherDisplay:10.37,2013-03-31 21:15:00,
2013-03-31 16:20:00,75.4,59.6,29.89,WNW,299,6.9,6.9,58,0.00,BKN,,0.43,657.0,WeatherDisplay:10.37,2013-03-31 21:20:00,
2013-03-31 16:25:00,75.4,59.6,29.88,NW,306,9.2,9.2,58,0.00,BKN,,0.43,635.0,WeatherDisplay:10.37,2013-03-31 21:25:00,
2013-03-31 16:30:00,74.9,58.1,29.88,North,355,11.5,11.5,56,0.00,BKN,,0.43,643.0,WeatherDisplay:10.37,2013-03-31 21:30:00,
2013-03-31 16:35:00,74.9,59.1,29.88,NNW,339,10.0,10.0,58,0.00,BKN,,0.43,643.0,WeatherDisplay:10.37,2013-03-31 21:35:00,
2013-03-31 16:40:00,75.3,58.5,29.88,NW,317,11.5,11.5,56,0.00,BKN,,0.43,640.0,WeatherDisplay:10.37,2013-03-31 21:40:00,
2013-03-31 16:45:00,75.5,59.7,29.88,WNW,286,6.9,6.9,58,0.00,BKN,,0.43,633.0,WeatherDisplay:10.37,2013-03-31 21:45:00,
2013-03-31 16:50:00,75.6,58.8,29.88,NW,317,6.9,6.9,56,0.00,BKN,,0.43,621.0,WeatherDisplay:10.37,2013-03-31 21:50:00,
2013-03-31 16:55:00,75.7,58.4,29.87,WNW,294,9.0,9.0,55,0.00,BKN,,0.43,561.0,WeatherDisplay:10.37,2013-03-31 21:55:00,
2013-03-31 17:00:00,75.3,58.0,29.87,WNW,294,6.9,6.9,55,0.00,BKN,,0.43,541.0,WeatherDisplay:10.37,2013-03-31 22:00:00,
2013-03-31 17:05:00,75.3,59.0,29.87,WNW,300,8.1,8.1,57,0.00,SCT,,0.43,531.0,WeatherDisplay:10.37,2013-03-31 22:05:00,
2013-03-31 17:10:00,75.3,58.5,29.87,North,350,13.0,13.0,56,0.00,SCT,,0.43,517.0,WeatherDisplay:10.37,2013-03-31 22:10:00,
2013-03-31 17:15:00,75.4,57.6,29.86,NNW,327,6.0,6.0,54,0.00,SCT,,0.43,482.0,WeatherDisplay:10.37,2013-03-31 22:15:00,
2013-03-31 17:20:00,75.1,57.3,29.86,NW,310,8.1,8.1,54,0.00,SCT,,0.43,469.0,WeatherDisplay:10.37,2013-03-31 22:20:00,
2013-03-31 17:25:00,75.0,57.7,29.86,NW,307,9.2,9.2,55,0.00,SCT,,0.43,476.0,WeatherDisplay:10.37,2013-03-31 22:25:00,
2013-03-31 17:31:00,75.1,57.3,29.86,NNW,330,12.0,12.0,54,0.00,SCT,,0.43,422.0,WeatherDisplay:10.37,2013-03-31 22:31:00,
2013-03-31 17:36:00,75.0,57.7,29.86,NW,315,9.2,9.2,55,0.00,SCT,,0.43,397.0,WeatherDisplay:10.37,2013-03-31 22:36:00,
2013-03-31 17:41:00,75.1,56.8,29.86,NNW,338,6.0,6.0,53,0.00,SCT,,0.43,378.0,WeatherDisplay:10.37,2013-03-31 22:41:00,
2013-03-31 17:46:00,74.9,58.1,29.86,WNW,300,9.2,9.2,56,0.00,SCT,,0.43,366.0,WeatherDisplay:10.37,2013-03-31 22:46:00,
2013-03-31 17:51:00,74.9,56.6,29.86,NNW,344,6.9,6.9,53,0.00,SCT,,0.43,343.0,WeatherDisplay:10.37,2013-03-31 22:51:00,
2013-03-31 17:56:00,74.9,56.6,29.86,North,360,10.4,10.4,53,0.00,SCT,,0.43,329.0,WeatherDisplay:10.37,2013-03-31 22:56:00,
2013-03-31 18:01:00,74.8,57.5,29.86,North,350,11.5,11.5,55,0.00,SCT,,0.43,297.0,WeatherDisplay:10.37,2013-03-31 23:01:00,
2013-03-31 18:06:00,74.9,56.6,29.86,North,355,6.9,6.9,53,0.00,CLR,,0.43,281.0,WeatherDisplay:10.37,2013-03-31 23:06:00,
2013-03-31 18:11:00,74.8,56.5,29.86,NNW,337,7.0,7.0,53,0.00,CLR,,0.43,262.0,WeatherDisplay:10.37,2013-03-31 23:11:00,
2013-03-31 18:16:00,74.9,56.1,29.86,North,355,8.0,8.0,52,0.00,CLR,,0.43,248.0,WeatherDisplay:10.37,2013-03-31 23:16:00,
2013-03-31 18:21:00,74.9,56.6,29.86,NNW,336,9.2,9.2,53,0.00,CLR,,0.43,227.0,WeatherDisplay:10.37,2013-03-31 23:21:00,
2013-03-31 18:26:00,74.9,56.1,29.86,North,355,6.9,6.9,52,0.00,CLR,,0.43,206.0,WeatherDisplay:10.37,2013-03-31 23:26:00,
2013-03-31 18:31:00,74.8,56.5,29.87,NW,326,10.4,10.4,53,0.00,CLR,,0.43,113.0,WeatherDisplay:10.37,2013-03-31 23:31:00,
2013-03-31 18:36:00,74.4,56.7,29.87,NW,311,4.6,4.6,54,0.00,CLR,,0.43,56.0,WeatherDisplay:10.37,2013-03-31 23:36:00,
2013-03-31 18:41:00,74.2,56.5,29.87,NNW,331,8.1,8.1,54,0.00,CLR,,0.43,54.0,WeatherDisplay:10.37,2013-03-31 23:41:00,
2013-03-31 18:46:00,73.9,56.2,29.87,NW,318,6.0,6.0,54,0.00,CLR,,0.43,53.0,WeatherDisplay:10.37,2013-03-31 23:46:00,
2013-03-31 18:51:00,73.6,56.4,29.87,NNW,330,9.2,9.2,55,0.00,CLR,,0.43,53.0,WeatherDisplay:10.37,2013-03-31 23:51:00,
2013-03-31 18:57:00,73.4,56.2,29.87,NW,326,9.0,9.0,55,0.00,CLR,,0.43,58.0,WeatherDisplay:10.37,2013-03-31 23:57:00,
2013-03-31 19:02:00,73.0,55.9,29.87,NNW,332,6.0,6.0,55,0.00,CLR,,0.43,60.0,WeatherDisplay:10.37,2013-04-01 00:02:00,
2013-03-31 19:07:00,72.8,56.2,29.87,NW,311,6.9,6.9,56,0.00,CLR,,0.43,49.0,WeatherDisplay:10.37,2013-04-01 00:07:00,
2013-03-31 19:12:00,72.6,56.0,29.87,NW,322,8.1,8.1,56,0.00,CLR,,0.43,39.0,WeatherDisplay:10.37,2013-04-01 00:12:00,
2013-03-31 19:17:00,72.3,55.2,29.87,NNW,332,4.6,4.6,55,0.00,CLR,,0.43,33.0,WeatherDisplay:10.37,2013-04-01 00:17:00,
2013-03-31 19:22:00,72.1,55.5,29.87,NW,325,4.6,4.6,56,0.00,CLR,,0.43,28.0,WeatherDisplay:10.37,2013-04-01 00:22:00,
2013-03-31 19:27:00,72.0,54.9,29.87,NW,308,4.6,4.6,55,0.00,CLR,,0.43,23.0,WeatherDisplay:10.37,2013-04-01 00:27:00,
2013-03-31 19:32:00,71.7,55.2,29.88,WNW,302,4.6,4.6,56,0.00,CLR,,0.43,16.0,WeatherDisplay:10.37,2013-04-01 00:32:00,
2013-03-31 19:37:00,71.5,55.0,29.88,NW,325,4.6,4.6,56,0.00,CLR,,0.43,12.0,WeatherDisplay:10.37,2013-04-01 00:37:00,
2013-03-31 19:42:00,71.3,54.8,29.88,NNW,330,4.6,4.6,56,0.00,CLR,,0.43,7.0,WeatherDisplay:10.37,2013-04-01 00:42:00,
2013-03-31 19:47:00,71.1,55.1,29.88,NW,318,6.9,6.9,57,0.00,CLR,,0.43,0.0,WeatherDisplay:10.37,2013-04-01 00:47:00,
2013-03-31 19:52:00,70.8,54.8,29.88,NW,319,4.6,4.6,57,0.00,CLR,,0.43,0.0,WeatherDisplay:10.37,2013-04-01 00:52:00,
2013-03-31 19:57:00,70.6,54.6,29.88,NW,319,2.3,2.3,57,0.00,CLR,,0.43,0.0,WeatherDisplay:10.37,2013-04-01 00:57:00,
2013-03-31 20:02:00,70.4,54.4,29.88,NW,319,2.3,2.3,57,0.00,CLR,,0.43,0.0,WeatherDisplay:10.37,2013-04-01 01:02:00,
2013-03-31 20:07:00,70.1,54.2,29.89,NW,319,5.8,5.8,57,0.00,CLR,,0.43,0.0,WeatherDisplay:10.37,2013-04-01 01:07:00,
2013-03-31 20:12:00,69.9,54.4,29.89,NW,319,3.5,3.5,58,0.00,CLR,,0.43,0.0,WeatherDisplay:10.37,2013-04-01 01:12:00,
2013-03-31 20:17:00,69.6,54.2,29.89,NW,321,5.8,5.8,58,0.00,CLR,,0.43,0.0,WeatherDisplay:10.37,2013-04-01 01:17:00,
2013-03-31 20:22:00,69.4,54.0,29.89,NW,321,2.0,2.0,58,0.00,CLR,,0.43,0.0,WeatherDisplay:10.37,2013-04-01 01:22:00,
2013-03-31 20:27:00,69.2,53.8,29.89,NW,321,1.1,1.1,58,0.00,CLR,,0.43,0.0,WeatherDisplay:10.37,2013-04-01 01:27:00,
2013-03-31 20:32:00,69.0,54.1,29.89,NW,321,4.0,4.0,59,0.00,CLR,,0.43,0.0,WeatherDisplay:10.37,2013-04-01 01:32:00,
2013-03-31 20:37:00,68.7,53.8,29.90,NW,321,2.3,2.3,59,0.00,CLR,,0.43,0.0,WeatherDisplay:10.37,2013-04-01 01:37:00,
2013-03-31 20:42:00,68.4,53.5,29.89,NW,321,3.5,3.5,59,0.00,CLR,,0.43,0.0,WeatherDisplay:10.37,2013-04-01 01:42:00,
2013-03-31 20:47:00,68.1,53.7,29.90,NW,322,1.1,1.1,60,0.00,CLR,,0.43,0.0,WeatherDisplay:10.37,2013-04-01 01:47:00,
2013-03-31 20:52:00,67.9,53.5,29.90,NW,322,1.1,1.1,60,0.00,CLR,,0.43,0.0,WeatherDisplay:10.37,2013-04-01 01:52:00,
2013-03-31 20:57:00,67.6,52.8,29.90,NW,323,4.6,4.6,59,0.00,CLR,,0.43,0.0,WeatherDisplay:10.37,2013-04-01 01:57:00,
2013-03-31 21:02:00,67.4,53.0,29.90,NW,324,2.3,2.3,60,0.00,CLR,,0.43,0.0,WeatherDisplay:10.37,2013-04-01 02:02:00,
2013-03-31 21:07:00,67.2,52.8,29.90,NW,323,3.5,3.5,60,0.00,CLR,,0.43,0.0,WeatherDisplay:10.37,2013-04-01 02:07:00,
2013-03-31 21:16:00,66.9,53.0,29.90,NW,324,0.0,0.0,61,0.00,CLR,,0.43,0.0,WeatherDisplay:10.37,2013-04-01 02:16:00,
2013-03-31 21:21:00,66.7,52.8,29.90,NW,323,1.1,0.0,61,0.00,CLR,,0.43,0.0,WeatherDisplay:10.37,2013-04-01 02:21:00,
2013-03-31 21:26:00,66.5,52.6,29.91,NW,324,1.1,0.0,61,0.00,CLR,,0.43,0.0,WeatherDisplay:10.37,2013-04-01 02:26:00,
2013-03-31 21:32:00,66.3,52.9,29.91,NW,323,0.0,0.1,62,0.00,CLR,,0.43,0.0,WeatherDisplay:10.37,2013-04-01 02:32:00,
2013-03-31 21:37:00,66.1,52.7,29.91,NW,324,1.1,1.1,62,0.00,CLR,,0.43,0.0,WeatherDisplay:10.37,2013-04-01 02:37:00,
2013-03-31 21:42:00,65.8,52.4,29.91,NW,324,1.1,0.0,62,0.00,CLR,,0.43,0.0,WeatherDisplay:10.37,2013-04-01 02:42:00,
2013-03-31 21:47:00,65.6,52.7,29.91,NW,324,2.3,2.3,63,0.00,CLR,,0.43,0.0,WeatherDisplay:10.37,2013-04-01 02:47:00,
2013-03-31 21:52:00,65.4,52.5,29.91,NW,324,1.1,0.0,63,0.00,CLR,,0.43,0.0,WeatherDisplay:10.37,2013-04-01 02:52:00,
2013-03-31 21:57:00,65.2,52.7,29.91,NW,324,0.0,0.0,64,0.00,CLR,,0.43,0.0,WeatherDisplay:10.37,2013-04-01 02:57:00,
2013-03-31 22:02:00,65.0,52.5,29.92,NW,324,0.0,0.0,64,0.00,CLR,,0.43,0.0,WeatherDisplay:10.37,2013-04-01 03:02:00,
2013-03-31 22:07:00,64.7,52.7,29.92,NW,324,1.1,1.1,65,0.00,CLR,,0.43,0.0,WeatherDisplay:10.37,2013-04-01 03:07:00,
2013-03-31 22:12:00,64.5,52.5,29.92,NW,324,0.0,0.0,65,0.00,CLR,,0.43,0.0,WeatherDisplay:10.37,2013-04-01 03:12:00,
2013-03-31 22:17:00,64.4,52.4,29.92,NW,324,0.0,0.0,65,0.00,CLR,,0.43,0.0,WeatherDisplay:10.37,2013-04-01 03:17:00,
2013-03-31 22:22:00,64.1,52.1,29.92,NW,324,0.0,0.0,65,0.00,CLR,,0.43,0.0,WeatherDisplay:10.37,2013-04-01 03:22:00,
2013-03-31 22:27:00,63.9,51.9,29.92,NW,324,0.0,0.0,65,0.00,CLR,,0.43,0.0,WeatherDisplay:10.37,2013-04-01 03:27:00,
2013-03-31 22:32:00,63.7,52.1,29.92,NW,324,1.1,0.0,66,0.00,CLR,,0.43,0.0,WeatherDisplay:10.37,2013-04-01 03:32:00,
2013-03-31 22:37:00,63.5,52.3,29.92,NW,324,1.1,1.1,67,0.00,CLR,,0.43,0.0,WeatherDisplay:10.37,2013-04-01 03:37:00,
2013-03-31 22:42:00,63.2,52.5,29.92,NW,324,1.1,1.1,68,0.00,CLR,,0.43,0.0,WeatherDisplay:10.37,2013-04-01 03:42:00,
2013-03-31 22:47:00,63.0,52.3,29.92,NW,324,3.5,3.5,68,0.00,CLR,,0.43,0.0,WeatherDisplay:10.37,2013-04-01 03:47:00,
2013-03-31 22:52:00,62.8,52.1,29.92,NW,324,1.1,1.1,68,0.00,CLR,,0.43,0.0,WeatherDisplay:10.37,2013-04-01 03:52:00,
2013-03-31 22:57:00,62.6,51.9,29.92,NW,324,1.1,0.0,68,0.00,CLR,,0.43,0.0,WeatherDisplay:10.37,2013-04-01 03:57:00,
2013-03-31 23:00:00,62.5,51.8,29.92,NW,324,1.1,0.0,68,0.00,CLR,,0.43,0.0,WeatherDisplay:10.37,2013-04-01 04:00:00,
2013-03-31 23:05:00,62.3,51.6,29.92,NW,324,1.1,1.1,68,0.00,CLR,,0.43,0.0,WeatherDisplay:10.37,2013-04-01 04:05:00,
2013-03-31 23:10:00,62.2,51.9,29.93,NW,324,0.0,0.0,69,0.00,CLR,,0.43,0.0,WeatherDisplay:10.37,2013-04-01 04:10:00,
2013-03-31 23:13:00,62.1,51.4,29.93,NW,324,0.0,0.0,68,0.00,CLR,,0.43,0.0,WeatherDisplay:10.37,2013-04-01 04:13:00,
2013-03-31 23:18:00,61.9,51.6,29.93,NW,324,1.1,1.1,69,0.00,CLR,,0.43,0.0,WeatherDisplay:10.37,2013-04-01 04:18:00,
2013-03-31 23:23:00,61.7,51.8,29.93,NW,324,1.1,0.0,70,0.00,CLR,,0.43,0.0,WeatherDisplay:10.37,2013-04-01 04:23:00,
2013-03-31 23:28:00,61.5,51.6,29.93,NW,324,0.0,0.0,70,0.00,CLR,,0.43,0.0,WeatherDisplay:10.37,2013-04-01 04:28:00,
2013-03-31 23:33:00,61.3,51.4,29.93,NW,324,1.1,0.0,70,0.00,CLR,,0.43,0.0,WeatherDisplay:10.37,2013-04-01 04:33:00,
2013-03-31 23:38:00,61.1,51.6,29.93,NW,324,0.0,0.0,71,0.00,CLR,,0.43,0.0,WeatherDisplay:10.37,2013-04-01 04:38:00,
2013-03-31 23:43:00,60.9,51.4,29.93,NW,324,0.0,0.0,71,0.00,CLR,,0.43,0.0,WeatherDisplay:10.37,2013-04-01 04:43:00,
2013-03-31 23:48:00,60.7,51.6,29.94,NW,324,0.0,0.0,72,0.00,CLR,,0.43,0.0,WeatherDisplay:10.37,2013-04-01 04:48:00,
2013-03-31 23:53:00,60.5,51.8,29.94,NW,324,0.0,0.0,73,0.00,CLR,,0.43,0.0,WeatherDisplay:10.37,2013-04-01 04:53:00,
2013-03-31 23:58:00,60.2,51.9,29.94,NW,324,0.0,0.0,74,0.00,CLR,,0.43,0.0,WeatherDisplay:10.37,2013-04-01 04:58:00,